Time;durP1;ratioP1;P1;durP2;ratioP2;P2;SDS_P1;SDS_P2;PMS_P1;PMS_P2;Temp;Humidity;BMP_temperature;BMP_pressure;BME280_temperature;BME280_humidity;BME280_pressure;Samples;Min_cycle;Max_cycle;Signal;HPM_P1;HPM_P2
2022/12/19 00:01:02;;;;;;;16.08;7.50;;;;;;;-1.81;43.36;101947.59;4912775;29;20741;-73
2022/12/19 00:03:27;;;;;;;12.10;6.07;;;;;;;-2.19;43.77;101948.19;4915041;28;20059;-73
2022/12/19 00:05:52;;;;;;;12.98;6.22;;;;;;;-1.71;43.10;101942.72;4901178;29;20528;-74
2022/12/19 00:08:18;;;;;;;18.95;6.60;;;;;;;-1.69;43.71;101941.06;4916182;28;20055;-73
2022/12/19 00:10:54;;;;;;;13.02;7.57;;;;;;;-1.62;43.65;101937.84;4912844;29;20036;-73
2022/12/19 00:13:19;;;;;;;20.35;7.18;;;;;;;-1.73;43.61;101949.50;4894422;28;20043;-73
2022/12/19 00:15:44;;;;;;;14.07;7.07;;;;;;;-1.55;43.75;101946.56;4911939;29;20386;-74
2022/12/19 00:18:10;;;;;;;19.15;6.57;;;;;;;-1.47;43.44;101935.69;4903001;28;20545;-76
2022/12/19 00:20:36;;;;;;;13.35;6.15;;;;;;;-1.95;44.56;101937.78;4896155;29;20470;-73
2022/12/19 00:23:01;;;;;;;14.95;8.27;;;;;;;-2.05;44.95;101936.63;4910627;28;20072;-73
2022/12/19 00:25:27;;;;;;;14.27;6.10;;;;;;;-1.86;44.84;101928.66;4880905;29;20044;-72
2022/12/19 00:27:52;;;;;;;17.88;6.80;;;;;;;-1.95;45.49;101925.84;4894832;28;20059;-73
2022/12/19 00:30:18;;;;;;;14.45;7.15;;;;;;;-1.72;45.10;101915.38;4899570;29;20043;-73
2022/12/19 00:32:43;;;;;;;17.67;6.68;;;;;;;-1.84;45.41;101906.50;4911713;28;20110;-73
2022/12/19 00:35:09;;;;;;;17.05;7.72;;;;;;;-2.08;46.78;101906.69;4911046;29;20110;-73
2022/12/19 00:37:34;;;;;;;17.63;7.95;;;;;;;-1.55;45.92;101903.88;4904842;28;20055;-73
2022/12/19 00:40:02;;;;;;;17.23;8.07;;;;;;;-2.27;47.69;101899.28;4893726;29;20186;-71
2022/12/19 00:42:27;;;;;;;14.45;8.00;;;;;;;-1.87;46.86;101893.59;4885880;29;20047;-71
2022/12/19 00:44:53;;;;;;;22.65;8.15;;;;;;;-1.86;47.10;101887.66;4917932;29;20119;-81
2022/12/19 00:47:18;;;;;;;18.77;7.75;;;;;;;-1.89;47.84;101884.13;4909768;29;20079;-76
2022/12/19 00:49:44;;;;;;;17.67;8.07;;;;;;;-1.68;47.78;101881.31;4894312;29;20071;-74
2022/12/19 00:52:09;;;;;;;20.45;7.97;;;;;;;-1.85;48.38;101874.00;4879730;29;20135;-75
2022/12/19 00:54:35;;;;;;;19.27;7.80;;;;;;;-1.89;48.72;101861.97;4893856;29;20063;-78
2022/12/19 00:57:00;;;;;;;20.13;8.38;;;;;;;-1.87;48.73;101860.28;4896448;29;20342;-77
2022/12/19 00:59:28;;;;;;;20.25;8.95;;;;;;;-1.76;48.57;101863.13;4909075;29;20032;-76
2022/12/19 01:01:57;;;;;;;19.80;8.82;;;;;;;-2.27;50.23;101864.31;4915046;28;20031;-79
2022/12/19 01:04:23;;;;;;;19.98;8.57;;;;;;;-1.97;49.55;101858.31;4913348;29;20098;-76
2022/12/19 01:06:50;;;;;;;17.33;7.88;;;;;;;-1.91;49.69;101838.00;4900348;28;20419;-69
2022/12/19 01:09:15;;;;;;;19.13;8.57;;;;;;;-1.74;49.46;101827.31;4914047;29;20868;-72
2022/12/19 01:14:25;;;;;;;18.67;9.05;;;;;;;-1.56;49.39;101825.22;4911957;29;20032;-74
2022/12/19 01:16:51;;;;;;;22.98;10.10;;;;;;;-1.80;49.79;101828.00;4902615;28;20493;-72
2022/12/19 01:19:17;;;;;;;20.30;8.80;;;;;;;-1.50;49.10;101835.63;4878731;29;20047;-71
2022/12/19 01:21:44;;;;;;;20.98;9.10;;;;;;;-1.71;50.39;101828.25;4893285;28;20024;-71
2022/12/19 01:24:10;;;;;;;22.17;8.65;;;;;;;-1.41;49.40;101827.31;4913467;29;20103;-72
2022/12/19 01:26:36;;;;;;;26.25;9.02;;;;;;;-1.84;50.84;101818.53;4909163;29;20311;-72
2022/12/19 01:29:01;;;;;;;25.65;9.60;;;;;;;-1.51;49.74;101802.25;4911953;28;20555;-71
2022/12/19 01:31:27;;;;;;;25.58;10.13;;;;;;;-1.98;51.07;101795.06;4914045;29;20062;-70
2022/12/19 01:33:54;;;;;;;24.38;9.88;;;;;;;-1.70;50.58;101786.41;4912152;28;20502;-73
2022/12/19 01:36:21;;;;;;;23.48;11.43;;;;;;;-1.60;50.94;101779.81;4912005;29;20524;-72
2022/12/19 01:38:47;;;;;;;22.75;9.32;;;;;;;-1.53;50.40;101774.03;4911270;28;20424;-72
2022/12/19 01:41:12;;;;;;;25.67;9.90;;;;;;;-1.67;51.39;101775.38;4906147;29;20437;-70
2022/12/19 01:43:58;;;;;;;21.95;9.23;;;;;;;-1.57;51.20;101787.59;4908104;29;20047;-70
2022/12/19 01:46:42;;;;;;;23.40;10.00;;;;;;;-1.75;51.49;101774.31;4912968;29;20051;-69
2022/12/19 01:49:25;;;;;;;16.77;10.35;;;;;;;-1.48;50.76;101780.13;4913292;29;20188;-69
2022/12/19 01:51:52;;;;;;;24.10;9.57;;;;;;;-1.46;50.82;101781.03;4911303;28;20039;-70
2022/12/19 01:54:28;;;;;;;24.75;11.48;;;;;;;-1.66;51.97;101787.38;4910928;29;20307;-71
2022/12/19 01:56:57;;;;;;;25.00;9.35;;;;;;;-1.68;51.81;101789.03;4895001;28;20027;-69
2022/12/19 01:59:30;;;;;;;22.95;9.05;;;;;;;-1.48;51.56;101785.25;4910877;29;20885;-68
2022/12/19 02:02:07;;;;;;;26.40;11.80;;;;;;;-1.56;51.66;101778.19;4911933;28;20150;-69
2022/12/19 02:04:33;;;;;;;28.27;10.75;;;;;;;-1.20;51.03;101767.94;4910616;29;20586;-69
2022/12/19 02:07:02;;;;;;;21.02;8.27;;;;;;;-1.28;51.58;101759.22;4910496;28;20055;-69
2022/12/19 02:09:27;;;;;;;23.02;9.50;;;;;;;-1.11;50.96;101750.19;4908979;29;20685;-69
2022/12/19 02:11:53;;;;;;;27.13;11.20;;;;;;;-1.16;51.24;101749.22;4923694;28;20043;-69
2022/12/19 02:14:20;;;;;;;19.83;9.40;;;;;;;-1.31;51.54;101748.88;4877049;29;20726;-71
2022/12/19 02:17:06;;;;;;;24.92;9.82;;;;;;;-1.03;51.16;101751.28;4891238;28;20512;-74
2022/12/19 02:19:53;;;;;;;19.73;9.35;;;;;;;-1.10;51.22;101751.94;4893472;29;20119;-71
2022/12/19 02:22:49;;;;;;;26.40;10.18;;;;;;;-1.31;51.83;101733.50;4890962;28;20048;-71
2022/12/19 02:26:00;;;;;;;24.02;11.18;;;;;;;-1.65;53.22;101722.44;4890693;29;20048;-72
2022/12/19 02:28:51;;;;;;;29.00;10.27;;;;;;;-1.01;51.52;101739.34;4883410;29;20502;-71
2022/12/19 02:31:20;;;;;;;24.83;12.05;;;;;;;-1.32;52.49;101749.72;4893162;29;20088;-71
2022/12/19 02:33:57;;;;;;;25.27;10.35;;;;;;;-1.31;52.56;101757.44;4907402;28;20059;-71
2022/12/19 02:36:43;;;;;;;28.10;11.70;;;;;;;-1.11;51.67;101741.63;4911253;29;20858;-71
2022/12/19 02:39:44;;;;;;;26.60;10.40;;;;;;;-1.18;52.19;101732.94;4882733;29;20052;-70
2022/12/19 02:42:19;;;;;;;24.02;9.75;;;;;;;-1.00;51.86;101720.53;4896173;29;20051;-71
2022/12/19 02:44:49;;;;;;;22.70;10.63;;;;;;;-1.09;52.20;101719.44;4912136;29;20039;-74
2022/12/19 02:47:16;;;;;;;26.95;10.95;;;;;;;-0.86;51.79;101717.41;4909847;29;20780;-70
2022/12/19 02:49:41;;;;;;;23.30;9.13;;;;;;;-1.42;53.58;101717.84;4910510;29;20626;-70
2022/12/19 02:52:19;;;;;;;26.42;11.88;;;;;;;-0.92;52.40;101712.16;4911735;28;20125;-71
2022/12/19 02:54:50;;;;;;;23.35;10.02;;;;;;;-1.29;53.49;101712.16;4914348;29;20036;-71
2022/12/19 02:57:40;;;;;;;23.38;9.93;;;;;;;-1.02;52.74;101714.53;4913690;28;20066;-71
2022/12/19 03:00:09;;;;;;;20.83;9.85;;;;;;;-0.69;52.06;101703.22;4915710;29;20032;-70
2022/12/19 03:03:01;;;;;;;28.75;11.02;;;;;;;-0.75;52.27;101703.06;4906849;28;20048;-71
2022/12/19 03:05:56;;;;;;;26.55;11.20;;;;;;;-1.88;55.64;101697.13;4896157;29;20035;-70
2022/12/19 03:08:40;;;;;;;22.50;10.40;;;;;;;-1.18;53.92;101712.41;4894344;29;20526;-70
2022/12/19 03:11:12;;;;;;;24.80;10.60;;;;;;;-0.90;53.28;101706.22;4896511;29;20509;-73
2022/12/19 03:13:47;;;;;;;28.17;10.27;;;;;;;-0.94;53.33;101711.25;4901860;29;20132;-71
2022/12/19 03:16:13;;;;;;;27.27;10.15;;;;;;;-0.86;53.38;101694.28;4897563;29;20043;-70
2022/12/19 03:18:40;;;;;;;25.13;10.52;;;;;;;-0.66;52.81;101689.56;4874479;29;20110;-71
2022/12/19 03:21:12;;;;;;;25.10;10.52;;;;;;;-0.86;53.41;101681.47;4896948;29;20067;-71
2022/12/19 03:23:38;;;;;;;22.70;9.18;;;;;;;-0.73;53.09;101678.31;4911447;28;20525;-71
2022/12/19 03:26:08;;;;;;;29.92;11.98;;;;;;;-1.02;53.86;101676.03;4914923;29;20031;-69
2022/12/19 03:28:48;;;;;;;27.63;10.05;;;;;;;-0.87;53.75;101666.91;4912531;29;20058;-69
2022/12/19 03:31:16;;;;;;;26.65;10.27;;;;;;;-0.82;53.44;101673.00;4899286;29;20039;-68
2022/12/19 03:33:45;;;;;;;28.77;11.15;;;;;;;-1.00;53.64;101658.09;4927331;28;20448;-65
2022/12/19 03:36:18;;;;;;;26.60;10.32;;;;;;;-0.78;53.68;101659.38;4915024;29;20040;-68
2022/12/19 03:38:44;;;;;;;30.67;11.35;;;;;;;-1.03;53.92;101643.50;4913246;28;20059;-66
2022/12/19 03:41:13;;;;;;;23.67;9.13;;;;;;;-0.92;54.27;101633.47;4914345;29;20091;-68
2022/12/19 03:43:42;;;;;;;24.95;11.30;;;;;;;-1.05;54.11;101628.91;4913047;28;20044;-68
2022/12/19 03:46:21;;;;;;;26.23;10.90;;;;;;;-1.04;54.91;101636.66;4914418;29;20075;-67
2022/12/19 03:48:50;;;;;;;19.58;9.68;;;;;;;-0.92;54.50;101635.16;4910434;28;20629;-68
2022/12/19 03:51:27;;;;;;;25.92;9.82;;;;;;;-1.08;55.21;101624.56;4913959;29;20044;-69
2022/12/19 03:54:08;;;;;;;30.08;10.70;;;;;;;-1.18;56.15;101617.50;4914141;29;20047;-68
2022/12/19 03:56:54;;;;;;;24.40;11.13;;;;;;;-0.89;55.69;101630.09;4911888;28;20048;-68
2022/12/19 03:59:38;;;;;;;30.33;12.25;;;;;;;-1.14;56.91;101621.84;4915063;29;20051;-74
2022/12/19 04:02:04;;;;;;;27.25;10.93;;;;;;;-1.20;57.14;101619.16;4915104;28;20047;-74
2022/12/19 04:04:34;;;;;;;31.52;12.88;;;;;;;-1.11;57.07;101614.22;4912724;29;20822;-74
2022/12/19 04:07:02;;;;;;;31.83;12.32;;;;;;;-1.22;57.49;101625.94;4915204;28;20043;-74
2022/12/19 04:09:29;;;;;;;27.58;10.05;;;;;;;-1.06;57.02;101617.78;4914555;29;20118;-74
2022/12/19 04:12:02;;;;;;;30.88;12.23;;;;;;;-1.16;57.24;101620.97;4914364;29;20242;-74
2022/12/19 04:14:34;;;;;;;31.50;11.90;;;;;;;-1.15;57.22;101607.31;4913445;29;20075;-76
2022/12/19 04:17:38;;;;;;;27.95;11.30;;;;;;;-1.18;57.82;101589.28;4914818;28;20433;-74
2022/12/19 04:20:03;;;;;;;29.77;10.82;;;;;;;-0.93;57.40;101592.34;4803508;29;20484;-74
2022/12/19 04:22:34;;;;;;;30.13;12.50;;;;;;;-1.03;57.61;101586.19;4814926;29;20137;-74
2022/12/19 04:25:06;;;;;;;31.27;13.27;;;;;;;-1.39;58.68;101580.31;4848391;29;20138;-74
2022/12/19 04:27:35;;;;;;;29.23;10.65;;;;;;;-1.13;58.50;101577.41;4914809;28;20087;-77
2022/12/19 04:30:04;;;;;;;23.95;11.32;;;;;;;-1.21;58.87;101573.84;4898561;29;20319;-74
2022/12/19 04:32:34;;;;;;;22.33;10.25;;;;;;;-1.02;58.67;101563.13;4896478;28;20185;-74
2022/12/19 04:35:00;;;;;;;27.55;11.65;;;;;;;-1.31;59.49;101565.06;4918075;28;20505;-76
2022/12/19 04:37:28;;;;;;;34.40;10.82;;;;;;;-0.80;58.10;101563.53;4888878;29;20059;-74
2022/12/19 04:39:53;;;;;;;27.67;12.02;;;;;;;-0.70;57.43;101554.28;4895004;29;20398;-76
2022/12/19 04:42:19;;;;;;;25.73;10.77;;;;;;;-0.89;58.03;101560.78;4893132;29;20056;-75
2022/12/19 04:44:47;;;;;;;24.00;11.20;;;;;;;-0.82;57.85;101548.06;4897576;29;20036;-77
2022/12/19 04:47:13;;;;;;;31.92;12.48;;;;;;;-0.83;58.42;101543.78;4879112;28;20547;-76
2022/12/19 04:49:38;;;;;;;27.38;11.10;;;;;;;-0.81;58.18;101531.00;4905461;29;20092;-76
2022/12/19 04:52:04;;;;;;;30.25;12.23;;;;;;;-0.77;58.07;101531.09;4894028;28;20044;-76
2022/12/19 04:54:31;;;;;;;26.27;11.68;;;;;;;-0.72;58.38;101535.44;4896501;29;20044;-74
2022/12/19 04:56:56;;;;;;;34.20;11.43;;;;;;;-0.83;59.01;101528.41;4895809;28;20138;-74
2022/12/19 04:59:22;;;;;;;30.98;12.00;;;;;;;-0.77;59.37;101518.25;4913783;29;20560;-73
2022/12/19 05:01:48;;;;;;;29.92;12.45;;;;;;;-0.69;59.01;101525.22;4909006;28;20051;-72
2022/12/19 05:04:13;;;;;;;30.27;11.15;;;;;;;-0.56;58.47;101515.16;4896184;29;20048;-72
2022/12/19 05:06:39;;;;;;;20.85;10.02;;;;;;;-1.28;60.94;101518.97;4896649;29;20409;-72
2022/12/19 05:09:04;;;;;;;22.17;11.07;;;;;;;-0.85;60.61;101512.09;4918635;29;20039;-72
2022/12/19 05:11:30;;;;;;;31.70;12.25;;;;;;;-0.67;60.14;101523.53;4912670;28;20101;-72
2022/12/19 05:13:57;;;;;;;31.88;10.98;;;;;;;-0.74;60.13;101517.44;4913065;29;20534;-72
2022/12/19 05:16:23;;;;;;;30.85;12.68;;;;;;;-0.86;60.74;101517.19;4913563;29;20066;-71
2022/12/19 05:18:48;;;;;;;26.02;10.70;;;;;;;-0.59;60.54;101501.44;4895822;29;20409;-72
2022/12/19 05:21:14;;;;;;;25.77;10.95;;;;;;;-1.10;61.42;101500.50;4915501;29;20122;-72
2022/12/19 05:23:40;;;;;;;30.13;11.35;;;;;;;-0.97;61.70;101505.06;4911070;29;20854;-72
2022/12/19 05:26:06;;;;;;;33.33;12.68;;;;;;;-0.39;59.74;101489.75;4915245;29;20213;-71
2022/12/19 05:28:32;;;;;;;21.77;9.85;;;;;;;-0.29;59.96;101495.88;4913116;29;20124;-77
2022/12/19 05:31:18;;;;;;;24.10;11.23;;;;;;;-0.20;59.61;101488.31;4917893;29;20042;-77
2022/12/19 05:33:45;;;;;;;25.65;11.48;;;;;;;-0.29;59.98;101493.31;4913779;28;20126;-73
2022/12/19 05:36:12;;;;;;;30.58;11.18;;;;;;;-1.15;62.67;101494.44;4929040;29;20032;-73
2022/12/19 05:38:37;;;;;;;29.42;12.32;;;;;;;-0.45;61.08;101493.94;4926357;28;20119;-72
2022/12/19 05:41:14;;;;;;;21.58;9.75;;;;;;;0.05;59.33;101483.53;4913369;29;20884;-73
2022/12/19 05:43:40;;;;;;;34.03;12.50;;;;;;;-0.18;59.73;101480.63;4910905;28;20047;-71
2022/12/19 05:46:09;;;;;;;26.88;10.48;;;;;;;-0.37;60.61;101482.94;4916480;29;20040;-76
2022/12/19 05:48:35;;;;;;;24.02;12.43;;;;;;;-0.58;61.71;101486.03;4915242;28;20066;-77
2022/12/19 05:51:00;;;;;;;27.42;12.05;;;;;;;-0.36;61.10;101469.25;4914039;29;20043;-71
2022/12/19 05:53:27;;;;;;;25.38;11.55;;;;;;;-0.65;62.20;101480.78;4916790;29;20040;-75
2022/12/19 05:56:09;;;;;;;26.50;11.18;;;;;;;-0.93;62.59;101476.88;4916404;29;20135;-75
2022/12/19 05:58:35;;;;;;;27.52;12.20;;;;;;;0.03;59.77;101478.38;4913261;28;20940;-75
2022/12/19 06:01:07;;;;;;;24.98;10.95;;;;;;;0.14;59.19;101462.22;4915697;29;20163;-74
2022/12/19 06:03:32;;;;;;;23.73;10.43;;;;;;;0.04;59.68;101467.25;4915871;28;20040;-75
2022/12/19 06:06:02;;;;;;;25.60;13.52;;;;;;;0.07;59.54;101464.69;4920974;29;20471;-75
2022/12/19 06:08:27;;;;;;;22.73;10.60;;;;;;;0.15;59.58;101472.53;4915388;28;20047;-76
2022/12/19 06:10:53;;;;;;;30.98;12.25;;;;;;;0.22;58.96;101466.59;4915608;29;20042;-73
2022/12/19 06:13:18;;;;;;;27.23;11.05;;;;;;;-0.02;59.96;101458.59;4899325;28;20048;-73
2022/12/19 06:15:44;;;;;;;19.27;9.50;;;;;;;-0.21;60.80;101463.47;4898129;29;20040;-74
2022/12/19 06:18:09;;;;;;;28.05;11.45;;;;;;;0.07;59.93;101468.97;4881081;29;20087;-72
2022/12/19 06:20:35;;;;;;;25.17;11.27;;;;;;;-0.25;60.96;101471.13;4896189;29;20127;-69
2022/12/19 06:23:01;;;;;;;23.80;10.98;;;;;;;0.20;59.36;101467.44;4892245;29;20043;-69
2022/12/19 06:25:26;;;;;;;22.73;9.93;;;;;;;0.15;59.39;101462.25;4893589;29;20294;-69
2022/12/19 06:27:51;;;;;;;24.52;10.25;;;;;;;-0.66;62.77;101468.75;4896444;29;20135;-72
2022/12/19 06:30:17;;;;;;;27.23;11.05;;;;;;;-0.13;61.46;101472.13;4897339;29;20213;-71
2022/12/19 06:32:43;;;;;;;27.77;11.55;;;;;;;0.19;59.99;101465.69;4916421;29;20055;-77
2022/12/19 06:35:08;;;;;;;23.58;10.98;;;;;;;0.24;59.59;101453.78;4925355;29;20043;-77
2022/12/19 06:37:34;;;;;;;29.60;12.35;;;;;;;0.43;58.70;101462.56;4921510;28;20140;-76
2022/12/19 06:39:59;;;;;;;28.85;12.13;;;;;;;-0.01;60.69;101450.91;4917046;29;20484;-72
2022/12/19 06:42:25;;;;;;;25.15;9.75;;;;;;;0.17;59.92;101450.28;4919632;28;20051;-78
2022/12/19 06:44:52;;;;;;;27.77;11.48;;;;;;;0.45;58.97;101453.16;4925644;29;20501;-72
2022/12/19 06:47:19;;;;;;;32.28;13.98;;;;;;;-0.38;61.78;101442.66;4931707;28;20086;-73
2022/12/19 06:49:45;;;;;;;27.52;11.75;;;;;;;0.26;59.75;101434.94;4916557;29;20595;-78
2022/12/19 06:52:10;;;;;;;28.63;11.93;;;;;;;0.16;60.30;101437.38;4915444;28;20114;-78
2022/12/19 06:54:40;;;;;;;28.48;13.25;;;;;;;0.28;59.60;101433.25;4899868;29;20028;-75
2022/12/19 06:57:07;;;;;;;28.48;12.15;;;;;;;0.06;60.75;101427.00;4898526;28;20111;-77
2022/12/19 06:59:33;;;;;;;22.35;9.98;;;;;;;0.20;60.02;101427.16;4874109;29;20139;-78
2022/12/19 07:02:22;;;;;;;29.20;11.10;;;;;;;0.03;60.95;101428.66;4908459;28;20040;-72
2022/12/19 07:04:54;;;;;;;27.02;12.15;;;;;;;0.06;61.04;101427.00;4931520;29;20400;-69
2022/12/19 07:07:19;;;;;;;24.33;10.55;;;;;;;0.38;60.00;101428.22;4914227;29;20055;-75
2022/12/19 07:09:45;;;;;;;29.70;11.82;;;;;;;0.48;59.56;101428.34;4898116;29;20485;-76
2022/12/19 07:12:11;;;;;;;25.58;11.50;;;;;;;0.33;60.50;101432.47;4903544;29;20126;-70
2022/12/19 07:14:36;;;;;;;28.05;11.65;;;;;;;0.43;60.16;101429.97;4916208;29;20226;-75
2022/12/19 07:17:03;;;;;;;34.25;12.68;;;;;;;0.13;61.43;101430.50;4911952;28;20075;-71
2022/12/19 07:19:30;;;;;;;29.35;11.60;;;;;;;0.42;60.29;101428.28;4898903;29;20036;-72
2022/12/19 07:21:56;;;;;;;31.58;14.35;;;;;;;0.35;60.47;101423.06;4897668;28;20083;-71
2022/12/19 07:24:22;;;;;;;27.23;14.23;;;;;;;0.39;60.84;101420.53;4915998;29;20039;-72
2022/12/19 07:26:47;;;;;;;31.85;13.45;;;;;;;0.15;61.13;101413.41;4913117;28;20498;-71
2022/12/19 07:29:13;;;;;;;29.15;12.27;;;;;;;0.30;61.10;101410.16;4917674;29;20155;-71
2022/12/19 07:31:38;;;;;;;29.45;12.85;;;;;;;0.46;60.98;101411.19;4913404;28;20042;-71
2022/12/19 07:34:04;;;;;;;32.45;12.23;;;;;;;0.31;61.56;101408.44;4902771;29;20032;-71
2022/12/19 07:36:29;;;;;;;27.75;13.35;;;;;;;0.48;61.10;101401.78;4915705;28;20051;-71
2022/12/19 07:38:55;;;;;;;25.35;11.68;;;;;;;-0.20;63.27;101406.09;4915859;29;22128;-71
2022/12/19 07:41:20;;;;;;;30.42;12.57;;;;;;;0.30;61.45;101410.16;4917824;29;20035;-71
2022/12/19 07:43:46;;;;;;;28.02;12.15;;;;;;;0.72;60.24;101405.41;4914769;28;20067;-71
2022/12/19 07:46:12;;;;;;;27.83;11.60;;;;;;;0.73;60.19;101404.59;4918361;29;20043;-71
2022/12/19 07:48:37;;;;;;;26.52;12.90;;;;;;;0.63;61.10;101404.47;4897479;28;20076;-71
2022/12/19 07:51:04;;;;;;;24.10;11.43;;;;;;;0.38;61.26;101393.06;4901199;29;20602;-71
2022/12/19 07:53:30;;;;;;;22.58;11.15;;;;;;;0.28;61.84;101399.84;4903953;29;20080;-71
2022/12/19 07:55:55;;;;;;;26.20;12.05;;;;;;;0.76;60.73;101402.88;4915982;29;20543;-71
2022/12/19 07:58:21;;;;;;;22.48;10.25;;;;;;;1.08;59.79;101410.91;4899459;29;20619;-71
2022/12/19 08:00:54;;;;;;;24.25;11.30;;;;;;;0.74;60.59;101404.56;4915057;29;20423;-70
2022/12/19 08:03:19;;;;;;;24.75;11.57;;;;;;;0.89;60.74;101406.44;4899135;28;20434;-70
2022/12/19 08:05:44;;;;;;;24.95;11.55;;;;;;;1.13;59.78;101404.91;4895165;29;20630;-70
2022/12/19 08:08:11;;;;;;;28.42;12.02;;;;;;;0.93;60.27;101413.34;4906932;29;20807;-69
2022/12/19 08:10:36;;;;;;;25.15;10.77;;;;;;;1.14;60.11;101411.78;4911830;29;20051;-71
2022/12/19 08:13:01;;;;;;;20.45;11.13;;;;;;;1.03;60.42;101399.69;4912940;28;20047;-70
2022/12/19 08:15:27;;;;;;;22.75;10.27;;;;;;;1.15;60.23;101392.91;4899991;29;20536;-72
2022/12/19 08:17:53;;;;;;;21.52;11.13;;;;;;;0.77;61.68;101396.03;4900263;28;20047;-71
2022/12/19 08:20:18;;;;;;;20.95;10.70;;;;;;;0.80;61.79;101401.22;4891602;29;20059;-71
2022/12/19 08:22:44;;;;;;;28.63;12.00;;;;;;;0.98;61.20;101388.50;4900841;28;20059;-71
2022/12/19 08:25:09;;;;;;;20.88;10.25;;;;;;;1.23;60.27;101396.41;4911433;29;20039;-71
2022/12/19 08:27:35;;;;;;;22.10;10.48;;;;;;;1.10;61.16;101396.34;4906895;29;20435;-71
2022/12/19 08:30:01;;;;;;;23.55;11.50;;;;;;;1.04;61.46;101391.13;4891402;29;20040;-71
2022/12/19 08:32:28;;;;;;;21.75;9.80;;;;;;;1.05;61.81;101391.97;4900169;28;20545;-70
2022/12/19 08:34:55;;;;;;;15.82;8.25;;;;;;;1.09;60.80;101384.28;4910571;29;20039;-71
2022/12/19 08:37:21;;;;;;;16.63;9.30;;;;;;;0.79;62.79;101384.03;4911560;28;20051;-71
2022/12/19 08:39:46;;;;;;;19.10;9.93;;;;;;;0.84;62.25;101383.25;4912055;29;20035;-70
2022/12/19 08:42:12;;;;;;;17.67;9.45;;;;;;;0.74;62.90;101388.28;4910519;28;20510;-69
2022/12/19 08:44:37;;;;;;;19.00;10.73;;;;;;;1.04;62.13;101391.13;4908591;29;20027;-70
2022/12/19 08:47:03;;;;;;;19.13;8.95;;;;;;;1.25;61.06;101385.25;4896954;29;20040;-71
2022/12/19 08:49:29;;;;;;;17.10;9.20;;;;;;;1.18;61.35;101383.50;4907186;29;20235;-69
2022/12/19 08:51:54;;;;;;;20.10;9.55;;;;;;;1.26;61.08;101380.97;4905212;28;20491;-71
2022/12/19 08:54:20;;;;;;;20.10;10.20;;;;;;;1.22;61.22;101380.09;4892058;29;20068;-70
2022/12/19 08:56:45;;;;;;;18.73;10.02;;;;;;;1.22;61.42;101392.13;4894976;28;20593;-71
2022/12/19 08:59:10;;;;;;;20.40;11.05;;;;;;;1.42;60.84;101390.56;4912553;29;20334;-70
2022/12/19 09:01:36;;;;;;;17.17;8.52;;;;;;;1.57;60.93;101388.91;4905778;28;20438;-71
2022/12/19 09:04:01;;;;;;;22.67;9.93;;;;;;;1.38;61.21;101375.06;4892411;29;20454;-71
2022/12/19 09:06:27;;;;;;;17.90;11.52;;;;;;;1.34;61.27;101381.03;4888608;29;20206;-71
2022/12/19 09:08:52;;;;;;;22.42;10.82;;;;;;;0.85;63.89;101389.25;4886387;29;20048;-71
2022/12/19 09:11:19;;;;;;;25.17;11.00;;;;;;;1.63;61.22;101381.22;4891596;29;20131;-71
2022/12/19 09:13:46;;;;;;;20.88;10.32;;;;;;;1.75;60.35;101381.28;4890276;29;20040;-71
2022/12/19 09:16:15;;;;;;;18.75;9.52;;;;;;;1.72;61.00;101373.53;4893184;29;20130;-70
2022/12/19 09:18:42;;;;;;;17.27;9.48;;;;;;;1.52;61.26;101379.44;4885502;29;20842;-71
2022/12/19 09:21:08;;;;;;;22.83;10.70;;;;;;;1.41;62.42;101381.09;4878604;29;20055;-71
2022/12/19 09:23:34;;;;;;;19.90;10.15;;;;;;;1.56;61.74;101382.91;4905186;28;20131;-71
2022/12/19 09:26:06;;;;;;;21.02;9.48;;;;;;;1.44;62.12;101370.84;4910215;29;20043;-71
2022/12/19 09:28:32;;;;;;;16.63;8.45;;;;;;;1.53;62.15;101372.59;4892394;28;20141;-70
2022/12/19 09:31:00;;;;;;;17.02;8.95;;;;;;;1.65;61.36;101374.38;4892724;29;20036;-71
2022/12/19 09:33:27;;;;;;;19.42;8.40;;;;;;;1.96;60.97;101375.38;4905766;29;20418;-71
2022/12/19 09:35:55;;;;;;;15.23;8.20;;;;;;;2.08;60.57;101370.25;4893147;29;22417;-71
2022/12/19 09:38:21;;;;;;;13.88;8.60;;;;;;;1.78;61.24;101365.84;4909467;28;20087;-70
2022/12/19 09:41:44;;;;;;;14.57;8.48;;;;;;;1.73;61.83;101375.28;4906667;29;20284;-71
2022/12/19 09:44:36;;;;;;;14.95;7.63;;;;;;;1.96;61.12;101366.78;4838151;29;20132;-69
2022/12/19 09:47:24;;;;;;;12.50;8.13;;;;;;;1.29;63.56;101383.59;4829200;29;20049;-71
2022/12/19 09:49:51;;;;;;;12.60;6.93;;;;;;;1.75;62.12;101381.28;4894398;29;20051;-70
2022/12/19 09:52:19;;;;;;;15.57;8.85;;;;;;;1.35;62.95;101375.00;4909767;28;20044;-71
2022/12/19 09:55:09;;;;;;;16.17;8.20;;;;;;;2.08;61.80;101379.72;4908338;29;20401;-71
2022/12/19 09:57:53;;;;;;;13.57;7.80;;;;;;;1.88;61.87;101377.06;4901624;28;20064;-71
2022/12/19 10:00:21;;;;;;;16.48;7.22;;;;;;;1.97;61.55;101369.34;4891254;29;20108;-71
2022/12/19 10:02:49;;;;;;;12.02;7.88;;;;;;;2.45;60.39;101374.66;4900090;28;20051;-71
2022/12/19 10:05:29;;;;;;;12.57;6.75;;;;;;;2.03;61.55;101376.25;4910102;29;20044;-70
2022/12/19 10:07:56;;;;;;;12.50;7.35;;;;;;;2.08;61.66;101374.56;4911777;28;20059;-71
2022/12/19 10:10:37;;;;;;;18.17;8.00;;;;;;;1.66;63.53;101373.50;4890692;29;20040;-71
2022/12/19 10:13:28;;;;;;;13.32;7.57;;;;;;;1.74;63.47;101374.41;4903746;29;20056;-71
2022/12/19 10:16:15;;;;;;;13.18;7.60;;;;;;;2.27;61.61;101376.34;4905991;29;20119;-70
2022/12/19 10:18:53;;;;;;;11.45;7.55;;;;;;;1.44;64.50;101380.25;4907911;29;20039;-70
2022/12/19 10:21:39;;;;;;;12.55;7.60;;;;;;;2.04;62.74;101376.28;4907993;29;20042;-70
2022/12/19 10:24:16;;;;;;;13.70;8.27;;;;;;;2.52;60.59;101366.06;4925050;28;20040;-71
2022/12/19 10:26:47;;;;;;;12.95;7.57;;;;;;;2.04;62.33;101378.84;4907603;28;20395;-71
2022/12/19 10:29:35;;;;;;;14.77;7.97;;;;;;;2.55;60.86;101366.06;4894421;29;20044;-69
2022/12/19 10:32:21;;;;;;;14.32;7.72;;;;;;;2.50;61.37;101363.47;4907656;28;20587;-69
2022/12/19 10:34:49;;;;;;;14.10;8.18;;;;;;;2.35;61.56;101361.75;4921797;28;20071;-69
2022/12/19 10:37:25;;;;;;;14.10;7.80;;;;;;;2.48;61.93;101362.59;4906628;29;20488;-69
2022/12/19 10:40:05;;;;;;;11.85;7.22;;;;;;;2.41;62.38;101360.88;4909285;29;20039;-69
2022/12/19 10:42:56;;;;;;;12.80;8.30;;;;;;;2.64;61.33;101362.63;4909294;28;20131;-69
2022/12/19 10:45:24;;;;;;;13.18;7.68;;;;;;;2.80;61.14;101363.50;4909249;29;20040;-69
2022/12/19 10:47:55;;;;;;;10.98;7.22;;;;;;;2.28;63.06;101362.56;4906597;28;20051;-69
2022/12/19 10:50:26;;;;;;;13.85;8.70;;;;;;;2.73;61.52;101353.19;4909639;29;20447;-69
2022/12/19 10:53:02;;;;;;;15.57;8.77;;;;;;;2.91;61.14;101354.03;4897167;29;20045;-69
2022/12/19 10:55:48;;;;;;;15.32;9.18;;;;;;;2.75;61.98;101341.13;4891136;29;20099;-69
2022/12/19 10:58:30;;;;;;;14.15;8.20;;;;;;;2.68;61.54;101330.81;4904814;29;20364;-69
2022/12/19 11:01:20;;;;;;;16.25;8.82;;;;;;;2.84;61.24;101322.19;4909523;29;20051;-69
2022/12/19 11:03:51;;;;;;;15.00;8.73;;;;;;;3.05;61.05;101325.63;4908149;28;20047;-70
2022/12/19 11:06:48;;;;;;;16.10;9.63;;;;;;;3.15;61.04;101327.31;4924839;29;20103;-68
2022/12/19 11:09:17;;;;;;;17.73;8.60;;;;;;;2.74;62.14;101325.66;4906978;29;20075;-69
2022/12/19 11:11:42;;;;;;;14.50;8.80;;;;;;;2.84;63.34;101331.66;4909175;28;20036;-69
2022/12/19 11:14:21;;;;;;;14.85;8.18;;;;;;;3.22;61.41;101336.78;4903304;29;20039;-69
2022/12/19 11:16:46;;;;;;;16.73;8.98;;;;;;;3.05;62.20;101334.22;4910493;28;20041;-69
2022/12/19 11:19:25;;;;;;;12.13;8.02;;;;;;;3.18;61.95;101328.19;4916565;29;20638;-69
2022/12/19 11:21:51;;;;;;;13.55;8.55;;;;;;;3.26;61.70;101315.25;4909257;28;20055;-71
2022/12/19 11:24:24;;;;;;;14.65;8.82;;;;;;;3.11;62.73;101317.84;4914523;29;20398;-68
2022/12/19 11:26:51;;;;;;;16.25;8.45;;;;;;;3.41;62.27;101327.31;4911033;28;20809;-70
2022/12/19 11:29:26;;;;;;;14.05;8.38;;;;;;;3.19;63.45;101318.72;4912785;29;20051;-69
2022/12/19 11:32:01;;;;;;;17.50;10.30;;;;;;;3.61;62.50;101322.06;4909757;28;20059;-69
2022/12/19 11:34:35;;;;;;;19.92;10.93;;;;;;;3.48;63.15;101321.25;4902318;29;20043;-69